createdAt,value
2018-07-15T00:01:07.194Z,13.73
2018-07-15T00:06:09.313Z,10.90
2018-07-15T00:11:11.433Z,10.73
2018-07-15T00:16:13.574Z,10.90
2018-07-15T00:21:15.676Z,9.60
2018-07-15T00:26:17.803Z,10.77
2018-07-15T00:31:19.965Z,13.10
2018-07-15T00:36:22.081Z,11.23
2018-07-15T00:41:24.241Z,11.23
2018-07-15T00:46:26.353Z,9.97
2018-07-15T00:51:28.481Z,10.97
2018-07-15T00:56:30.610Z,12.13
2018-07-15T01:01:32.745Z,11.47
2018-07-15T01:06:34.879Z,11.10
2018-07-15T01:11:37.085Z,9.83
2018-07-15T01:16:39.894Z,18.33
2018-07-15T01:21:42.054Z,14.80
2018-07-15T01:26:44.159Z,13.33
2018-07-15T01:31:46.686Z,10.87
2018-07-15T01:36:48.805Z,9.30
2018-07-15T01:41:50.969Z,10.70
2018-07-15T01:46:53.069Z,11.80
2018-07-15T01:51:55.178Z,12.40
2018-07-15T01:56:57.301Z,14.47
2018-07-15T02:01:59.439Z,12.33
2018-07-15T02:07:01.545Z,11.33
2018-07-15T02:12:03.689Z,14.87
2018-07-15T02:17:05.825Z,15.10
2018-07-15T02:22:07.978Z,10.63
2018-07-15T02:27:10.114Z,13.77
2018-07-15T02:32:12.241Z,12.70
2018-07-15T02:37:14.362Z,12.53
2018-07-15T02:42:16.486Z,11.70
2018-07-15T02:47:18.613Z,9.63
2018-07-15T02:52:20.723Z,10.60
2018-07-15T02:57:22.835Z,13.27
2018-07-15T03:02:24.953Z,12.83
2018-07-15T03:07:27.076Z,10.67
2018-07-15T03:12:29.189Z,11.40
2018-07-15T03:17:31.457Z,11.40
2018-07-15T03:22:33.441Z,18.20
2018-07-15T03:27:35.901Z,16.60
2018-07-15T03:32:38.040Z,13.30
2018-07-15T03:37:40.145Z,13.23
2018-07-15T03:42:42.293Z,14.43
2018-07-15T03:47:44.413Z,12.90
2018-07-15T03:52:46.542Z,11.47
2018-07-15T03:57:48.647Z,13.37
2018-07-15T04:02:50.758Z,13.83
2018-07-15T04:07:52.877Z,15.97
2018-07-15T04:12:55.010Z,14.00
2018-07-15T04:18:01.804Z,12.03
2018-07-15T04:23:04.652Z,12.80
2018-07-15T04:28:06.797Z,13.27
2018-07-15T04:33:08.869Z,16.70
2018-07-15T04:38:10.997Z,15.63
2018-07-15T04:43:13.105Z,12.30
2018-07-15T04:48:15.209Z,12.97
2018-07-15T04:53:17.321Z,12.37
2018-07-15T04:58:19.411Z,13.30
2018-07-15T05:03:21.508Z,10.10
2018-07-15T05:08:23.638Z,11.40
2018-07-15T05:13:25.798Z,13.60
2018-07-15T05:18:27.970Z,12.70
2018-07-15T05:23:30.054Z,10.70
2018-07-15T05:28:32.159Z,11.67
2018-07-15T05:33:34.265Z,11.93
2018-07-15T05:38:36.366Z,10.67
2018-07-15T05:43:38.478Z,11.47
2018-07-15T05:48:40.574Z,9.87
2018-07-15T05:53:42.709Z,14.67
2018-07-15T05:58:44.827Z,10.40
2018-07-15T06:03:46.921Z,17.73
2018-07-15T06:08:49.084Z,10.90
2018-07-15T06:13:51.177Z,15.17
2018-07-15T06:18:53.289Z,12.17
2018-07-15T06:23:55.426Z,11.10
2018-07-15T06:28:57.525Z,11.07
2018-07-15T06:33:59.658Z,10.50
2018-07-15T06:39:01.845Z,10.20
2018-07-15T06:44:05.430Z,10.10
2018-07-15T06:49:07.573Z,11.53
2018-07-15T06:54:09.645Z,9.50
2018-07-15T06:59:11.837Z,9.30
2018-07-15T07:04:13.957Z,8.97
2018-07-15T07:09:16.086Z,15.93
2018-07-15T07:14:18.213Z,11.70
2018-07-15T07:19:20.306Z,10.47
2018-07-15T07:24:22.398Z,8.40
2018-07-15T07:29:24.530Z,9.30
2018-07-15T07:34:26.649Z,11.87
2018-07-15T07:39:28.771Z,9.07
2018-07-15T07:44:30.898Z,8.47
2018-07-15T07:49:33.010Z,10.20
2018-07-15T07:54:35.122Z,13.47
2018-07-15T07:59:37.245Z,8.47
2018-07-15T08:04:39.414Z,9.40
2018-07-15T08:09:41.624Z,10.93
2018-07-15T08:14:43.740Z,8.90
2018-07-15T08:19:45.841Z,13.80
2018-07-15T08:24:47.962Z,9.70
2018-07-15T08:30:01.792Z,10.80
2018-07-15T08:35:03.901Z,7.20
2018-07-15T08:40:06.048Z,8.50
2018-07-15T08:45:08.190Z,9.37
2018-07-15T08:50:10.333Z,6.80
2018-07-15T08:55:12.450Z,9.30
2018-07-15T09:00:14.601Z,7.20
2018-07-15T09:05:16.742Z,9.50
2018-07-15T09:10:19.050Z,6.97
2018-07-15T09:15:21.182Z,9.87
2018-07-15T09:20:23.342Z,8.80
2018-07-15T09:25:25.485Z,6.63
2018-07-15T09:30:27.627Z,8.37
2018-07-15T09:35:29.810Z,8.30
2018-07-15T09:40:31.869Z,7.50
2018-07-15T09:45:33.985Z,8.50
2018-07-15T09:50:36.126Z,8.30
2018-07-15T09:55:38.244Z,23.40
2018-07-15T10:00:46.042Z,6.70
2018-07-15T10:05:48.234Z,6.70
2018-07-15T10:10:50.369Z,7.20
2018-07-15T10:15:52.498Z,8.80
2018-07-15T10:20:54.671Z,7.47
2018-07-15T10:25:56.817Z,6.43
2018-07-15T10:30:58.982Z,7.43
2018-07-15T10:36:01.182Z,10.20
2018-07-15T10:41:03.321Z,6.27
2018-07-15T10:46:05.458Z,7.60
2018-07-15T10:51:07.575Z,8.10
2018-07-15T10:56:09.687Z,10.17
2018-07-15T11:01:11.806Z,14.80
2018-07-15T11:06:13.989Z,6.77
2018-07-15T11:11:16.096Z,8.73
2018-07-15T11:16:18.273Z,7.87
2018-07-15T11:21:20.397Z,7.40
2018-07-15T11:26:22.530Z,6.83
2018-07-15T11:31:24.770Z,6.30
2018-07-15T11:36:26.901Z,6.83
2018-07-15T11:41:29.034Z,6.10
2018-07-15T11:46:31.157Z,6.33
2018-07-15T11:51:33.313Z,6.70
2018-07-15T11:56:35.461Z,7.50
2018-07-15T12:01:37.638Z,13.73
2018-07-15T12:06:39.706Z,6.57
2018-07-15T12:11:41.834Z,7.20
2018-07-15T12:16:43.982Z,8.30
2018-07-15T12:21:46.123Z,6.70
2018-07-15T12:26:48.262Z,6.57
2018-07-15T12:31:50.462Z,6.20
2018-07-15T12:36:52.590Z,6.43
2018-07-15T12:41:54.702Z,7.77
2018-07-15T12:46:56.814Z,6.43
2018-07-15T12:51:58.982Z,5.90
2018-07-15T12:57:01.104Z,5.13
2018-07-15T13:02:03.253Z,5.77
2018-07-15T13:07:05.405Z,6.20
2018-07-15T13:12:07.529Z,6.20
2018-07-15T13:17:09.645Z,6.40
2018-07-15T13:22:11.746Z,8.70
2018-07-15T13:27:13.912Z,12.33
2018-07-15T13:32:16.053Z,6.30
2018-07-15T13:37:18.206Z,6.70
2018-07-15T13:42:20.337Z,5.83
2018-07-15T13:47:22.460Z,6.10
2018-07-15T13:52:24.577Z,5.63
2018-07-15T13:57:26.702Z,7.20
2018-07-15T14:02:28.822Z,6.23
2018-07-15T14:07:30.929Z,6.30
2018-07-15T14:12:33.095Z,6.00
2018-07-15T14:17:35.205Z,5.87
2018-07-15T14:22:37.350Z,5.90
2018-07-15T14:27:39.505Z,12.60
2018-07-15T14:32:41.625Z,5.97
2018-07-15T14:37:43.837Z,8.10
2018-07-15T14:42:45.888Z,10.53
2018-07-15T14:47:48.074Z,7.33
2018-07-15T14:52:50.457Z,10.37
2018-07-15T14:57:52.619Z,8.23
2018-07-15T15:02:54.769Z,6.60
2018-07-15T15:07:56.881Z,10.27
2018-07-15T15:12:59.585Z,6.93
2018-07-15T15:18:01.766Z,5.97
2018-07-15T15:23:04.097Z,5.93
2018-07-15T15:28:06.228Z,11.93
2018-07-15T15:33:08.344Z,6.50
2018-07-15T15:38:10.451Z,8.03
2018-07-15T15:43:12.565Z,6.70
2018-07-15T15:48:14.669Z,5.63
2018-07-15T15:53:16.797Z,6.40
2018-07-15T15:58:18.886Z,6.17
2018-07-15T16:03:21.001Z,6.47
2018-07-15T16:08:23.145Z,7.50
2018-07-15T16:13:25.269Z,6.40
2018-07-15T16:18:27.376Z,6.87
2018-07-15T16:23:29.499Z,6.97
2018-07-15T16:28:31.638Z,11.30
2018-07-15T16:33:33.744Z,8.83
2018-07-15T16:38:35.861Z,8.13
2018-07-15T16:43:37.986Z,6.80
2018-07-15T16:48:40.129Z,8.77
2018-07-15T16:53:42.257Z,12.37
2018-07-15T16:58:44.365Z,8.87
2018-07-15T17:03:46.473Z,9.50
2018-07-15T17:08:48.598Z,7.97
2018-07-15T17:13:50.701Z,8.90
2018-07-15T17:18:52.815Z,8.00
2018-07-15T17:23:54.926Z,9.33
2018-07-15T17:28:57.081Z,7.20
2018-07-15T17:33:59.194Z,6.00
2018-07-15T17:39:01.296Z,5.37
2018-07-15T17:44:03.417Z,5.53
2018-07-15T17:49:05.547Z,4.80
2018-07-15T17:54:07.697Z,5.10
2018-07-15T17:59:10.590Z,8.40
2018-07-15T18:04:12.766Z,5.47
2018-07-15T18:09:14.972Z,4.50
2018-07-15T18:14:17.097Z,7.30
2018-07-15T18:19:19.205Z,5.87
2018-07-15T18:24:21.339Z,4.50
2018-07-15T18:29:23.482Z,5.50
2018-07-15T18:34:25.883Z,4.27
2018-07-15T18:39:28.010Z,6.70
2018-07-15T18:44:30.155Z,3.90
2018-07-15T18:49:32.258Z,3.30
2018-07-15T18:54:34.401Z,3.90
2018-07-15T18:59:36.538Z,3.70
2018-07-15T19:04:38.646Z,4.00
2018-07-15T19:09:40.770Z,3.77
2018-07-15T19:14:42.889Z,3.93
2018-07-15T19:19:45.001Z,4.27
2018-07-15T19:24:47.125Z,7.10
2018-07-15T19:29:49.258Z,3.80
2018-07-15T19:34:51.377Z,6.40
2018-07-15T19:39:53.553Z,4.83
2018-07-15T19:44:55.689Z,7.63
2018-07-15T19:49:58.072Z,4.50
2018-07-15T19:55:00.186Z,6.23
2018-07-15T20:00:02.407Z,4.30
2018-07-15T20:05:04.567Z,6.00
2018-07-15T20:10:06.714Z,4.70
2018-07-15T20:15:08.824Z,5.40
2018-07-15T20:20:11.665Z,5.37
2018-07-15T20:25:13.770Z,7.03
2018-07-15T20:30:15.943Z,6.80
2018-07-15T20:35:18.045Z,7.17
2018-07-15T20:40:20.160Z,6.90
2018-07-15T20:45:22.266Z,6.57
2018-07-15T20:50:24.462Z,8.53
2018-07-15T20:55:27.310Z,8.47
2018-07-15T21:00:29.410Z,8.53
2018-07-15T21:05:31.509Z,13.20
2018-07-15T21:10:33.609Z,6.30
2018-07-15T21:15:35.718Z,6.40
2018-07-15T21:20:37.868Z,5.20
2018-07-15T21:25:40.045Z,5.30
2018-07-15T21:30:42.364Z,6.13
2018-07-15T21:35:44.489Z,6.10
2018-07-15T21:40:46.622Z,5.47
2018-07-15T21:45:48.761Z,6.60
2018-07-15T21:50:50.873Z,5.67
2018-07-15T21:55:52.985Z,5.60
2018-07-15T22:00:55.117Z,6.33
2018-07-15T22:05:57.233Z,6.80
2018-07-15T22:10:59.365Z,8.50
2018-07-15T22:16:01.482Z,7.63
2018-07-15T22:21:03.648Z,6.23
2018-07-15T22:26:05.741Z,7.03
2018-07-15T22:31:07.907Z,6.00
2018-07-15T22:36:09.978Z,5.47
2018-07-15T22:41:12.093Z,6.17
2018-07-15T22:46:14.214Z,5.80
2018-07-15T22:51:16.344Z,5.40
2018-07-15T22:56:18.481Z,6.63
2018-07-15T23:01:20.629Z,7.20
2018-07-15T23:06:22.741Z,7.83
2018-07-15T23:11:24.866Z,7.37
2018-07-15T23:16:27.172Z,6.73
2018-07-15T23:21:29.289Z,11.93
2018-07-15T23:26:31.410Z,6.87
2018-07-15T23:31:33.518Z,6.53
2018-07-15T23:36:35.614Z,6.80
2018-07-15T23:41:37.737Z,10.30
2018-07-15T23:46:39.862Z,14.43
2018-07-15T23:51:41.982Z,8.27
2018-07-15T23:56:44.106Z,11.57
